Data for 01/03/2009

Time Sea-Level Adjusted Pressure Absolute Pressure Temperature Relative Humidity Dew Point   
(mb) (inHg) (mb) (inHg) (C) (F) (%) (C) (F)
00:05 1007 29.74 836 24.69 -8.1 17.4 81 -10.8 12.5
00:10 1007 29.74 836 24.69 -8.2 17.3 83 -10.5 13.1
00:15 1007 29.74 836 24.69 -8 17.7 82 -10.6 12.9
00:20 1007 29.74 836 24.69 -7.9 17.8 81 -10.5 13.1
00:25 1007 29.74 836 24.69 -7.9 17.8 80 -10.8 12.6
00:30 1007 29.74 836 24.69 -8.3 17.1 81 -10.9 12.3
00:35 1007 29.74 836 24.69 -8.3 17 82 -10.9 12.4
00:40 1007 29.74 836 24.69 -8.3 17 81 -11.1 12.1
00:45 1007 29.74 836 24.69 -8.8 16.2 83 -11.2 11.8
00:50 1007 29.74 836 24.69 -9 15.8 85 -11.1 11.9
00:55 1007 29.74 836 24.69 -9 15.9 84 -11.3 11.7
01:00 1007 29.74 836 24.69 -9.1 15.7 83 -11.4 11.5
01:05 1007 29.74 836 24.69 -9.4 15 82 -11.9 10.6
01:10 1007 29.74 836 24.69 -9.6 14.8 85 -11.7 11
01:15 1007 29.74 837 24.72 -9.6 14.8 83 -12 10.5
01:20 1007 29.74 837 24.72 -9.6 14.8 82 -12 10.4
01:25 1007 29.74 837 24.72 -9.7 14.5 84 -12 10.4
01:30 1008 29.77 837 24.72 -9.6 14.8 82 -12.1 10.3
01:35 1008 29.77 837 24.72 -9.5 15 82 -11.9 10.5
01:40 1008 29.77 837 24.72 -9.2 15.5 79 -12.2 10
01:45 1008 29.77 837 24.72 -9 15.8 83 -11.4 11.4
01:50 1008 29.77 837 24.72 -9.3 15.2 80 -12.2 10.1
01:55 1008 29.77 837 24.72 -9.7 14.6 80 -12.5 9.6
02:00 1008 29.77 837 24.72 -9.7 14.5 80 -12.5 9.5
02:05 1008 29.77 838 24.75 -9.7 14.6 81 -12.3 9.8
02:10 1008 29.77 838 24.75 -9.6 14.8 82 -12.2 10.1
02:15 1008 29.77 838 24.75 -9.6 14.6 81 -12.3 9.8
02:20 1008 29.77 838 24.75 -10 14.1 81 -12.6 9.3
02:25 1009 29.8 838 24.75 -9.7 14.5 79 -12.7 9.1
02:30 1009 29.8 838 24.75 -9.6 14.7 78 -12.8 9
02:35 1009 29.8 838 24.75 -9.7 14.5 78 -12.8 8.9
02:40 1009 29.8 838 24.75 -9.7 14.6 77 -13 8.6
02:45 1009 29.8 838 24.75 -9.5 14.9 75 -13.1 8.4
02:50 1009 29.8 838 24.75 -9.4 15.1 75 -13.1 8.5
02:55 1009 29.8 838 24.75 -9.3 15.3 74 -13.1 8.5
03:00 1009 29.8 838 24.75 -9.3 15.2 78 -12.5 9.5
03:05 1009 29.8 838 24.75 -10.2 13.6 81 -13 8.7
03:10 1009 29.8 838 24.75 -11.1 12.1 85 -13.2 8.3
03:15 1009 29.8 838 24.75 -11.3 11.7 84 -13.4 7.8
03:20 1009 29.8 839 24.78 -11.3 11.7 82 -13.7 7.3
03:25 1009 29.8 839 24.78 -11.6 11.2 82 -14.1 6.6
03:30 1010 29.83 839 24.78 -11.5 11.3 82 -14 6.7
03:35 1010 29.83 839 24.78 -11.4 11.6 82 -13.9 7
03:40 1010 29.83 839 24.78 -11.1 11.9 81 -13.8 7.1
03:45 1010 29.83 839 24.78 -11 12.2 81 -13.7 7.3
03:50 1010 29.83 839 24.78 -11 12.3 78 -14.2 6.5
03:55 1010 29.83 839 24.78 -10.9 12.4 78 -14.1 6.7
04:00 1010 29.83 839 24.78 -10.8 12.5 77 -14.1 6.6
04:05 1010 29.83 839 24.78 -10.8 12.6 78 -14 6.9
04:10 1010 29.83 840 24.81 -10.8 12.6 76 -14.3 6.2
04:15 1010 29.83 840 24.81 -10.8 12.6 74 -14.5 5.9
04:20 1011 29.85 840 24.81 -10.6 12.9 73 -14.6 5.7
04:25 1011 29.85 840 24.81 -10.4 13.2 70 -14.8 5.3
04:30 1011 29.85 840 24.81 -10.3 13.5 68 -15 4.9
04:35 1011 29.85 840 24.81 -10.2 13.6 66 -15.4 4.3
04:40 1011 29.85 840 24.81 -10.2 13.6 66 -15.5 4.1
04:45 1011 29.85 840 24.81 -10.2 13.6 65 -15.6 3.8
04:50 1011 29.85 840 24.81 -10.4 13.3 65 -15.8 3.6
04:55 1011 29.85 840 24.81 -10.4 13.2 63 -16.2 2.9
05:00 1011 29.85 840 24.81 -10.4 13.3 64 -16 3.2
05:05 1011 29.85 840 24.81 -10.3 13.4 64 -15.9 3.3
05:10 1011 29.85 840 24.81 -10.3 13.4 62 -16.2 2.8
05:15 1011 29.85 840 24.81 -10.4 13.3 63 -16.2 2.9
05:20 1011 29.85 840 24.81 -10.3 13.5 61 -16.5 2.2
05:25 1011 29.85 840 24.81 -10.3 13.4 61 -16.4 2.4
05:30 1011 29.85 840 24.81 -10.4 13.2 61 -16.5 2.2
05:35 1011 29.85 840 24.81 -10.5 13.1 59 -17 1.4
05:40 1011 29.85 840 24.81 -10.6 12.9 59 -17.2 1.1
05:45 1011 29.85 840 24.81 -10.6 12.9 57 -17.5 0.5
05:50 1011 29.85 840 24.81 -10.6 12.9 56 -17.7 0.1
05:55 1011 29.85 840 24.81 -10.5 13.1 57 -17.5 0.4
06:00 1011 29.85 840 24.81 -10.5 13.2 55 -17.9 -0.2
06:05 1011 29.85 841 24.83 -10.6 12.9 63 -16.4 2.5
06:10 1012 29.88 841 24.83 -11.3 11.8 63 -16.9 1.6
06:15 1012 29.88 841 24.83 -11.4 11.5 56 -18.5 -1.4
06:20 1012 29.88 841 24.83 -10.5 13 56 -17.8 -0
06:25 1012 29.88 841 24.83 -10.5 13.1 60 -16.9 1.5
06:30 1012 29.88 841 24.83 -10.7 12.8 62 -16.6 2.1
06:35 1012 29.88 841 24.83 -10.8 12.6 64 -16.4 2.4
06:40 1012 29.88 841 24.83 -11.1 12.1 63 -16.9 1.6
06:45 1012 29.88 841 24.83 -11 12.2 64 -16.6 2.1
06:50 1012 29.88 841 24.83 -11 12.2 66 -16.2 2.9
06:55 1012 29.88 841 24.83 -11.1 12 66 -16.2 2.9
07:00 1012 29.88 841 24.83 -11.2 11.8 68 -16 3.2
07:05 1012 29.88 842 24.86 -11.5 11.4 68 -16.3 2.6
07:10 1012 29.88 842 24.86 -11.4 11.5 68 -16.2 2.8
07:15 1012 29.88 842 24.86 -11.6 11.2 60 -17.9 -0.2
07:20 1012 29.88 842 24.86 -11.4 11.4 54 -18.9 -2.1
07:25 1012 29.88 842 24.86 -11.3 11.7 50 -19.8 -3.6
07:30 1012 29.88 842 24.86 -11.5 11.4 52 -19.4 -3
07:35 1012 29.88 842 24.86 -11.6 11.2 54 -19.1 -2.4
07:40 1012 29.88 842 24.86 -11.5 11.4 49 -20.2 -4.4
07:45 1012 29.88 842 24.86 -10.9 12.3 50 -19.5 -3.2
07:50 1013 29.91 842 24.86 -10.7 12.8 49 -19.5 -3
07:55 1013 29.91 842 24.86 -10.6 13 61 -16.8 1.8
08:00 1013 29.91 842 24.86 -11.4 11.4 66 -16.6 2.1
08:05 1013 29.91 842 24.86 -11.6 11 54 -19.1 -2.4
08:10 1013 29.91 842 24.86 -11.3 11.7 55 -18.7 -1.7
08:15 1013 29.91 842 24.86 -11.4 11.6 52 -19.3 -2.8
08:20 1013 29.91 842 24.86 -11.6 11.1 52 -19.7 -3.5
08:25 1013 29.91 842 24.86 -11.8 10.7 53 -19.5 -3.2
08:30 1013 29.91 842 24.86 -11.9 10.5 54 -19.6 -3.2
08:35 1013 29.91 842 24.86 -12 10.3 53 -19.9 -3.8
08:40 1013 29.91 842 24.86 -11.5 11.3 51 -19.8 -3.6
08:45 1013 29.91 842 24.86 -11.2 11.9 52 -19.2 -2.6
08:50 1013 29.91 843 24.89 -11.2 11.9 51 -19.3 -2.8
08:55 1013 29.91 843 24.89 -11.2 11.9 51 -19.4 -2.9
09:00 1014 29.94 843 24.89 -11.3 11.7 53 -19.2 -2.5
09:05 1014 29.94 843 24.89 -11.2 11.9 53 -19 -2.2
09:10 1014 29.94 843 24.89 -11.5 11.3 52 -19.6 -3.3
09:15 1014 29.94 843 24.89 -11.1 12 53 -18.9 -2.1
09:20 1014 29.94 843 24.89 -10.8 12.7 52 -18.9 -1.9
09:25 1014 29.94 843 24.89 -10.7 12.8 52 -18.8 -1.8
09:30 1014 29.94 844 24.92 -10.7 12.7 53 -18.5 -1.3
09:35 1014 29.94 844 24.92 -10.7 12.7 49 -19.4 -2.9
09:40 1014 29.94 844 24.92 -11 12.1 50 -19.6 -3.3
09:45 1015 29.97 844 24.92 -10.7 12.7 49 -19.6 -3.3
09:50 1015 29.97 844 24.92 -9.8 14.3 47 -19.1 -2.4
09:55 1015 29.97 844 24.92 -10 14 46 -19.5 -3.1
10:00 1015 29.97 844 24.92 -9.7 14.5 46 -19.4 -2.9
10:05 1015 29.97 844 24.92 -9.9 14.1 48 -19 -2.2
10:10 1015 29.97 844 24.92 -10.3 13.4 48 -19.3 -2.8
10:15 1015 29.97 844 24.92 -10.2 13.7 48 -19.2 -2.5
10:20 1015 29.97 844 24.92 -9.1 15.6 43 -19.5 -3
10:25 1015 29.97 844 24.92 -8.9 15.9 45 -18.8 -1.9
10:30 1015 29.97 844 24.92 -8.9 16 44 -19.1 -2.4
10:35 1015 29.97 844 24.92 -8.9 16 44 -19 -2.3
10:40 1015 29.97 844 24.92 -8.5 16.6 42 -19.3 -2.7
10:45 1015 29.97 844 24.92 -8.4 16.9 41 -19.3 -2.8
10:50 1015 29.97 844 24.92 -8.1 17.5 39 -19.9 -3.8
10:55 1015 29.97 844 24.92 -7.6 18.3 38 -19.8 -3.6
11:00 1015 29.97 844 24.92 -7.5 18.5 38 -19.6 -3.2
11:05 1015 29.97 844 24.92 -7.1 19.2 36 -19.8 -3.6
11:10 1015 29.97 845 24.95 -7.3 18.9 37 -19.7 -3.5
11:15 1015 29.97 845 24.95 -7.4 18.7 38 -19.5 -3.1
11:20 1015 29.97 845 24.95 -7.2 19 38 -19.1 -2.4
11:25 1015 29.97 845 24.95 -7.1 19.3 39 -18.9 -1.9
11:30 1015 29.97 845 24.95 -6.8 19.7 38 -18.8 -1.8
11:35 1015 29.97 845 24.95 -6.9 19.5 38 -19 -2.1
11:40 1015 29.97 845 24.95 -7.1 19.2 38 -19 -2.3
11:45 1015 29.97 845 24.95 -7.1 19.3 38 -19.1 -2.4
11:50 1015 29.97 845 24.95 -7.1 19.2 38 -19.2 -2.6
11:55 1015 29.97 845 24.95 -7 19.4 38 -19 -2.2
12:00 1015 29.97 844 24.92 -7 19.4 37 -19.4 -2.9
12:05 1015 29.97 844 24.92 -7.1 19.2 38 -19.2 -2.5
12:10 1015 29.97 844 24.92 -6.9 19.5 39 -18.7 -1.6
12:15 1015 29.97 844 24.92 -6.8 19.8 38 -18.9 -2.1
12:20 1015 29.97 844 24.92 -6.7 20 39 -18.3 -1
12:25 1015 29.97 845 24.95 -6.7 20 40 -18.2 -0.7
12:30 1015 29.97 845 24.95 -6.6 20.1 39 -18.3 -1
12:35 1015 29.97 845 24.95 -6.6 20.1 41 -17.9 -0.3
12:40 1016 30 845 24.95 -6.7 20 39 -18.6 -1.4
12:45 1016 30 845 24.95 -6.7 19.9 40 -18.1 -0.6
12:50 1016 30 845 24.95 -6.5 20.2 37 -19 -2.2
12:55 1016 30 845 24.95 -6.4 20.5 36 -19.3 -2.8
13:00 1016 30 845 24.95 -6.3 20.6 36 -19.2 -2.5
13:05 1016 30 845 24.95 -6 21.2 33 -19.8 -3.7
13:10 1016 30 845 24.95 -5.8 21.5 31 -20.6 -5.1
13:15 1016 30 845 24.95 -6.4 20.5 39 -18.1 -0.6
13:20 1016 30 845 24.95 -7.3 18.9 42 -18 -0.5
13:25 1016 30 845 24.95 -6.4 20.6 39 -18 -0.5
13:30 1016 30 845 24.95 -5.7 21.7 35 -18.9 -2
13:35 1016 30 845 24.95 -5.2 22.7 32 -19.5 -3.1
13:40 1016 30 845 24.95 -5.5 22.2 31 -20 -4
13:45 1016 30 845 24.95 -5.8 21.6 34 -19.3 -2.7
13:50 1016 30 845 24.95 -6.7 19.9 39 -18.5 -1.2
13:55 1016 30 845 24.95 -6.5 20.3 39 -18.3 -0.9
14:00 1016 30 845 24.95 -6.9 19.6 40 -18.5 -1.3
14:05 1016 30 845 24.95 -7.3 18.9 37 -19.8 -3.7
14:10 1016 30 845 24.95 -7.2 19 35 -20.3 -4.5
14:15 1016 30 845 24.95 -6.5 20.3 34 -20 -4.1
14:20 1016 30 846 24.98 -6.1 21 34 -19.8 -3.6
14:25 1016 30 846 24.98 -6.1 21 32 -20.2 -4.3
14:30 1016 30 846 24.98 -6.1 20.9 30 -21 -5.8
14:35 1016 30 846 24.98 -6 21.2 29 -21.3 -6.4
14:40 1016 30 846 24.98 -6.1 21.1 29 -21.5 -6.8
14:45 1016 30 846 24.98 -6 21.2 29 -21.3 -6.3
14:50 1017 30.03 846 24.98 -6.2 20.9 30 -21.1 -6
14:55 1017 30.03 846 24.98 -6.3 20.7 30 -21.4 -6.5
15:00 1017 30.03 846 24.98 -6.2 20.8 28 -22 -7.6
15:05 1017 30.03 846 24.98 -6.3 20.7 29 -21.7 -7
15:10 1017 30.03 846 24.98 -6.3 20.6 27 -22.4 -8.3
15:15 1017 30.03 846 24.98 -6.4 20.5 29 -21.5 -6.7
15:20 1017 30.03 846 24.98 -6.3 20.7 30 -21.3 -6.3
15:25 1017 30.03 846 24.98 -6.4 20.6 29 -21.6 -6.8
15:30 1017 30.03 846 24.98 -6.5 20.2 29 -22 -7.5
15:35 1017 30.03 846 24.98 -6.6 20.1 29 -22.1 -7.7
15:40 1017 30.03 846 24.98 -6.8 19.8 29 -21.9 -7.5
15:45 1017 30.03 847 25.01 -6.8 19.8 31 -21.4 -6.5
15:50 1017 30.03 847 25.01 -6.8 19.8 31 -21.1 -6.1
15:55 1017 30.03 847 25.01 -6.9 19.7 32 -21.2 -6.1
16:00 1017 30.03 847 25.01 -6.9 19.5 31 -21.2 -6.2
16:05 1018 30.06 847 25.01 -7 19.4 33 -20.8 -5.4
16:10 1018 30.06 847 25.01 -6.6 20 34 -20.2 -4.4
16:15 1018 30.06 847 25.01 -6.6 20.1 34 -20 -4.1
16:20 1018 30.06 847 25.01 -6.5 20.3 34 -20 -4
16:25 1018 30.06 847 25.01 -6.8 19.7 37 -19.1 -2.4
16:30 1018 30.06 847 25.01 -7.3 18.8 39 -19.1 -2.4
16:35 1018 30.06 847 25.01 -7.6 18.3 39 -19.2 -2.6
16:40 1018 30.06 847 25.01 -7.7 18.2 40 -19 -2.2
16:45 1018 30.06 847 25.01 -7.8 18 41 -18.9 -1.9
16:50 1018 30.06 847 25.01 -8.2 17.3 41 -19.1 -2.5
16:55 1018 30.06 847 25.01 -8.4 17 43 -18.7 -1.7
17:00 1018 30.06 847 25.01 -8.5 16.6 44 -18.6 -1.5
17:05 1018 30.06 847 25.01 -8.9 16 45 -18.7 -1.7
17:10 1018 30.06 848 25.04 -9.2 15.5 47 -18.6 -1.5
17:15 1018 30.06 848 25.04 -9.3 15.3 47 -18.7 -1.7
17:20 1018 30.06 848 25.04 -9.3 15.3 47 -18.6 -1.5
17:25 1019 30.09 848 25.04 -10.2 13.7 45 -19.9 -3.8
17:30 1019 30.09 848 25.04 -11 12.2 46 -20.5 -4.9
17:35 1019 30.09 848 25.04 -10.8 12.5 44 -21 -5.7
17:40 1019 30.09 848 25.04 -11 12.2 43 -21.2 -6.2
17:45 1019 30.09 848 25.04 -11.7 11 42 -22.2 -7.9
17:50 1019 30.09 848 25.04 -11.6 11.1 40 -22.6 -8.7
17:55 1019 30.09 848 25.04 -11.5 11.2 39 -22.8 -9
18:00 1019 30.09 848 25.04 -11.6 11.2 40 -22.6 -8.7
18:05 1019 30.09 848 25.04 -11.4 11.5 42 -22 -7.6
18:10 1019 30.09 848 25.04 -11.4 11.5 41 -22.1 -7.8
18:15 1019 30.09 848 25.04 -11.4 11.5 39 -22.9 -9.2
18:20 1019 30.09 848 25.04 -11.5 11.4 40 -22.6 -8.7
18:25 1019 30.09 848 25.04 -11.6 11.2 37 -23.5 -10.4
18:30 1019 30.09 848 25.04 -11.8 10.7 43 -22 -7.7
18:35 1019 30.09 848 25.04 -12.5 9.6 43 -22.5 -8.6
18:40 1019 30.09 848 25.04 -12.6 9.3 39 -24 -11.1
18:45 1019 30.09 848 25.04 -11.9 10.6 39 -23.2 -9.7
18:50 1019 30.09 848 25.04 -11.5 11.3 33 -24.8 -12.6
18:55 1019 30.09 848 25.04 -11.5 11.3 34 -24.3 -11.8
19:00 1019 30.09 848 25.04 -12.4 9.7 38 -24.1 -11.3
19:05 1019 30.09 848 25.04 -12.4 9.6 39 -23.9 -11
19:10 1019 30.09 848 25.04 -12.6 9.4 37 -24.4 -11.9
19:15 1019 30.09 848 25.04 -13.4 7.8 40 -24.5 -12.1
19:20 1019 30.09 848 25.04 -13.5 7.8 39 -24.6 -12.2
19:25 1019 30.09 849 25.07 -13.4 7.9 40 -24.2 -11.5
19:30 1019 30.09 849 25.07 -13.2 8.2 40 -24.2 -11.6
19:35 1019 30.09 849 25.07 -13 8.6 42 -23.3 -10
19:40 1019 30.09 849 25.07 -12.9 8.7 42 -23.3 -9.9
19:45 1019 30.09 849 25.07 -13 8.5 46 -22.3 -8.1
19:50 1019 30.09 849 25.07 -12.7 9.1 48 -21.7 -7
19:55 1019 30.09 849 25.07 -13 8.7 48 -21.8 -7.2
20:00 1019 30.09 849 25.07 -13 8.6 46 -22.4 -8.2
20:05 1020 30.12 849 25.07 -13.4 7.8 50 -21.7 -7.1
20:10 1020 30.12 849 25.07 -13.3 8 49 -21.8 -7.3
20:15 1020 30.12 849 25.07 -13.2 8.2 48 -22 -7.6
20:20 1020 30.12 849 25.07 -13.5 7.7 49 -22.2 -8
20:25 1020 30.12 849 25.07 -13.9 7 47 -22.8 -9.1
20:30 1020 30.12 849 25.07 -14.2 6.5 47 -23.3 -9.9
20:35 1020 30.12 849 25.07 -14.1 6.5 52 -22.1 -7.7
20:40 1020 30.12 849 25.07 -14.4 6.1 54 -21.9 -7.3
20:45 1020 30.12 849 25.07 -13.8 7.2 49 -22.4 -8.3
20:50 1020 30.12 849 25.07 -13.5 7.7 52 -21.4 -6.5
20:55 1020 30.12 849 25.07 -13.6 7.5 50 -22 -7.6
21:00 1020 30.12 849 25.07 -13.9 7 56 -20.8 -5.5
21:05 1020 30.12 849 25.07 -13.8 7.1 51 -21.9 -7.5
21:10 1020 30.12 849 25.07 -14.1 6.7 51 -22.1 -7.8
21:15 1020 30.12 849 25.07 -14.1 6.7 53 -21.8 -7.2
21:20 1020 30.12 849 25.07 -13.8 7.2 51 -21.8 -7.3
21:25 1020 30.12 849 25.07 -13.9 7.1 50 -22.1 -7.8
21:30 1020 30.12 849 25.07 -14.3 6.3 52 -22.2 -8
21:35 1020 30.12 849 25.07 -14.3 6.3 53 -21.9 -7.4
21:40 1020 30.12 849 25.07 -14.5 5.8 54 -21.9 -7.5
21:45 1020 30.12 849 25.07 -14.7 5.6 55 -21.8 -7.3
21:50 1020 30.12 849 25.07 -15 5.1 55 -22.2 -8
21:55 1020 30.12 849 25.07 -15.1 4.9 55 -22.2 -8
22:00 1020 30.12 849 25.07 -14.7 5.5 52 -22.4 -8.4
22:05 1020 30.12 849 25.07 -14.3 6.3 52 -22.1 -7.7
22:10 1020 30.12 849 25.07 -14.3 6.3 51 -22.3 -8.1
22:15 1020 30.12 849 25.07 -14.2 6.4 52 -22 -7.7
22:20 1020 30.12 849 25.07 -14.6 5.7 52 -22.4 -8.2
22:25 1020 30.12 849 25.07 -14.9 5.3 52 -22.8 -9
22:30 1020 30.12 849 25.07 -15.1 4.9 52 -22.8 -9.1
22:35 1020 30.12 849 25.07 -15.2 4.6 53 -22.8 -9
22:40 1020 30.12 850 25.1 -15.2 4.6 55 -22.4 -8.4
22:45 1020 30.12 850 25.1 -15.3 4.5 54 -22.7 -8.9
22:50 1020 30.12 850 25.1 -15.5 4.1 54 -22.8 -9.1
22:55 1020 30.12 850 25.1 -15.7 3.7 55 -22.8 -9.1
23:00 1020 30.12 850 25.1 -15.8 3.5 54 -23.1 -9.6
23:05 1020 30.12 850 25.1 -15.7 3.7 55 -22.9 -9.3
23:10 1021 30.15 850 25.1 -16.2 2.8 57 -23 -9.3
23:15 1021 30.15 850 25.1 -16.4 2.6 57 -23.1 -9.6
23:20 1021 30.15 850 25.1 -16.2 2.8 56 -23.1 -9.6
23:25 1021 30.15 850 25.1 -16 3.2 54 -23.3 -10
23:30 1021 30.15 850 25.1 -15.5 4.2 52 -23.3 -9.9
23:35 1021 30.15 850 25.1 -15.2 4.6 51 -23.2 -9.8
23:40 1021 30.15 850 25.1 -15.5 4.2 53 -23.1 -9.5
23:45 1021 30.15 850 25.1 -15.4 4.4 52 -23.2 -9.7
23:50 1021 30.15 850 25.1 -15.4 4.4 52 -23.2 -9.7
23:55 1021 30.15 850 25.1 -15.2 4.7 51 -23.2 -9.7
24:00 1021 30.15 850 25.1 -15.3 4.5 52 -23 -9.3